createdAt,value
2019-02-12T00:01:35.185Z,84.12
2019-02-12T00:04:07.150Z,83.99
2019-02-12T00:06:39.166Z,83.89
2019-02-12T00:09:11.223Z,83.83
2019-02-12T00:11:43.195Z,83.85
2019-02-12T00:14:15.172Z,83.71
2019-02-12T00:16:47.174Z,83.73
2019-02-12T00:19:19.146Z,83.83
2019-02-12T00:21:51.145Z,83.84
2019-02-12T00:24:23.118Z,83.78
2019-02-12T00:26:55.138Z,83.90
2019-02-12T00:29:27.107Z,83.65
2019-02-12T00:31:59.104Z,83.49
2019-02-12T00:34:31.256Z,83.58
2019-02-12T00:37:03.184Z,83.54
2019-02-12T00:39:36.579Z,83.33
2019-02-12T00:42:08.585Z,82.62
2019-02-12T00:44:40.564Z,82.37
2019-02-12T00:47:12.555Z,82.55
2019-02-12T00:49:44.612Z,82.78
2019-02-12T00:52:16.975Z,82.64
2019-02-12T00:54:50.405Z,82.65
2019-02-12T00:57:23.123Z,82.47
2019-02-12T00:59:55.874Z,82.74
2019-02-12T01:02:28.708Z,82.67
2019-02-12T01:05:00.802Z,82.63
2019-02-12T01:07:32.775Z,82.74
2019-02-12T01:10:06.091Z,82.86
2019-02-12T01:12:38.051Z,82.79
2019-02-12T01:15:11.058Z,82.78
2019-02-12T01:17:43.076Z,82.73
2019-02-12T01:20:15.059Z,82.83
2019-02-12T01:22:47.013Z,82.58
2019-02-12T01:25:18.997Z,82.60
2019-02-12T01:27:50.948Z,82.20
2019-02-12T01:30:22.950Z,82.06
2019-02-12T01:32:54.958Z,82.19
2019-02-12T01:35:26.948Z,82.33
2019-02-12T01:37:58.918Z,82.17
2019-02-12T01:40:30.936Z,82.35
2019-02-12T01:43:02.921Z,82.55
2019-02-12T01:45:34.975Z,82.40
2019-02-12T01:48:06.939Z,82.16
2019-02-12T01:50:38.995Z,82.09
2019-02-12T01:53:10.989Z,81.97
2019-02-12T01:55:42.979Z,82.29
2019-02-12T01:58:14.962Z,82.24
2019-02-12T02:00:46.953Z,82.25
2019-02-12T02:03:18.983Z,82.28
2019-02-12T02:05:50.962Z,82.07
2019-02-12T02:08:22.953Z,82.24
2019-02-12T02:10:54.913Z,82.55
2019-02-12T02:13:26.896Z,82.31
2019-02-12T02:15:58.870Z,81.99
2019-02-12T02:18:30.881Z,82.08
2019-02-12T02:21:02.899Z,82.43
2019-02-12T02:23:34.878Z,82.67
2019-02-12T02:26:06.856Z,82.61
2019-02-12T02:28:38.817Z,82.54
2019-02-12T02:31:10.789Z,82.42
2019-02-12T02:33:42.769Z,82.39
2019-02-12T02:36:14.756Z,81.71
2019-02-12T02:38:46.747Z,81.81
2019-02-12T02:41:38.179Z,81.13
2019-02-12T02:44:10.192Z,81.50
2019-02-12T02:46:42.149Z,81.63
2019-02-12T02:49:14.171Z,81.46
2019-02-12T02:51:53.646Z,81.53
2019-02-12T02:54:20.062Z,81.37
2019-02-12T02:56:52.037Z,81.41
2019-02-12T02:59:24.031Z,80.80
2019-02-12T03:01:56.058Z,81.35
2019-02-12T03:04:28.088Z,81.65
2019-02-12T03:07:00.053Z,81.55
2019-02-12T03:09:32.054Z,81.27
2019-02-12T03:12:04.064Z,80.99
2019-02-12T03:14:36.056Z,81.35
2019-02-12T03:17:08.041Z,81.18
2019-02-12T03:19:40.063Z,81.25
2019-02-12T03:22:12.038Z,81.28
2019-02-12T03:24:44.052Z,81.44
2019-02-12T03:27:16.044Z,81.27
2019-02-12T03:29:48.115Z,81.03
2019-02-12T03:32:20.090Z,81.12
2019-02-12T03:34:52.216Z,80.72
2019-02-12T03:37:24.221Z,81.07
2019-02-12T03:39:56.210Z,80.99
2019-02-12T03:42:28.196Z,80.80
2019-02-12T03:45:00.499Z,79.68
2019-02-12T03:47:34.084Z,80.35
2019-02-12T03:50:06.779Z,80.42
2019-02-12T03:52:38.744Z,80.52
2019-02-12T03:55:10.892Z,80.38
2019-02-12T03:57:42.923Z,80.29
2019-02-12T04:00:14.933Z,80.46
2019-02-12T04:03:06.643Z,80.67
2019-02-12T04:05:39.026Z,80.66
2019-02-12T04:08:11.019Z,80.22
2019-02-12T04:10:42.997Z,79.06
2019-02-12T04:13:14.975Z,79.24
2019-02-12T04:15:47.073Z,79.95
2019-02-12T04:18:19.073Z,78.90
2019-02-12T04:20:51.103Z,78.87
2019-02-12T04:23:23.087Z,79.43
2019-02-12T04:25:55.156Z,79.91
2019-02-12T04:28:27.072Z,79.95
2019-02-12T04:33:58.209Z,79.67
2019-02-12T04:36:30.195Z,79.87
2019-02-12T04:41:41.857Z,80.04
2019-02-12T04:44:13.845Z,80.04
2019-02-12T04:46:45.852Z,80.16
2019-02-12T04:49:17.841Z,80.07
2019-02-12T04:51:49.832Z,80.09
2019-02-12T04:54:21.853Z,80.36
2019-02-12T04:56:53.880Z,80.40
2019-02-12T04:59:25.885Z,80.42
2019-02-12T05:01:57.984Z,80.59
2019-02-12T05:04:29.986Z,80.61
2019-02-12T05:07:02.042Z,80.59
2019-02-12T05:09:34.974Z,80.65
2019-02-12T05:12:06.967Z,80.52
2019-02-12T05:14:38.977Z,80.50
2019-02-12T05:17:10.961Z,80.50
2019-02-12T05:19:42.970Z,80.44
2019-02-12T05:22:14.971Z,80.44
2019-02-12T05:24:46.966Z,80.73
2019-02-12T05:27:18.991Z,80.49
2019-02-12T05:29:51.012Z,80.36
2019-02-12T05:32:22.974Z,80.06
2019-02-12T05:34:55.918Z,80.10
2019-02-12T05:37:28.824Z,80.36
2019-02-12T05:40:00.800Z,80.59
2019-02-12T05:42:34.016Z,80.73
2019-02-12T05:45:25.530Z,80.56
2019-02-12T05:47:57.532Z,80.63
2019-02-12T05:50:29.541Z,80.50
2019-02-12T05:53:01.528Z,80.66
2019-02-12T05:55:33.532Z,80.62
2019-02-12T05:58:05.494Z,80.37
2019-02-12T06:00:37.507Z,80.48
2019-02-12T06:03:09.522Z,80.50
2019-02-12T06:05:41.548Z,80.46
2019-02-12T06:08:13.500Z,80.46
2019-02-12T06:10:45.521Z,80.22
2019-02-12T06:13:17.497Z,79.53
2019-02-12T06:15:49.491Z,79.64
2019-02-12T06:18:21.472Z,79.87
2019-02-12T06:20:53.493Z,80.15
2019-02-12T06:23:25.440Z,80.28
2019-02-12T06:25:57.461Z,79.96
2019-02-12T06:28:29.487Z,80.05
2019-02-12T06:31:01.487Z,80.01
2019-02-12T06:33:33.545Z,79.92
2019-02-12T06:36:05.614Z,79.89
2019-02-12T06:38:37.561Z,79.94
2019-02-12T06:41:09.614Z,80.17
2019-02-12T06:43:41.594Z,80.15
2019-02-12T06:46:13.629Z,80.33
2019-02-12T06:48:45.600Z,80.39
2019-02-12T06:51:17.618Z,80.13
2019-02-12T06:53:49.585Z,80.28
2019-02-12T06:56:21.578Z,80.15
2019-02-12T06:58:53.582Z,79.99
2019-02-12T07:01:25.596Z,80.00
2019-02-12T07:03:59.963Z,80.11
2019-02-12T07:06:54.568Z,80.30
2019-02-12T07:09:38.092Z,80.18
2019-02-12T07:12:37.200Z,80.23
2019-02-12T07:15:20.096Z,80.51
2019-02-12T07:18:44.398Z,80.40
2019-02-12T07:21:47.208Z,80.30
2019-02-12T07:25:13.276Z,80.45
2019-02-12T07:28:11.102Z,79.91
2019-02-12T07:31:30.146Z,80.18
2019-02-12T07:34:37.463Z,80.17
2019-02-12T07:37:50.184Z,80.09
2019-02-12T07:41:18.448Z,80.15
2019-02-12T07:44:12.310Z,80.23
2019-02-12T07:47:19.867Z,80.28
2019-02-12T07:50:23.530Z,79.77
2019-02-12T07:53:31.450Z,79.44
2019-02-12T07:56:25.273Z,79.29
2019-02-12T07:59:38.298Z,79.36
2019-02-12T08:02:33.776Z,78.70
2019-02-12T08:06:10.317Z,78.87
2019-02-12T08:09:29.180Z,79.00
2019-02-12T08:12:33.172Z,78.95
2019-02-12T08:15:50.238Z,78.97
2019-02-12T08:19:22.554Z,78.86
2019-02-12T08:22:33.908Z,78.85
2019-02-12T08:25:18.131Z,77.64
2019-02-12T08:28:31.444Z,78.04
2019-02-12T08:31:12.043Z,78.44
2019-02-12T08:34:19.827Z,78.51
2019-02-12T08:37:21.281Z,78.20
2019-02-12T08:40:24.466Z,78.17
2019-02-12T08:43:42.291Z,77.59
2019-02-12T08:46:58.691Z,77.03
2019-02-12T08:50:02.633Z,76.98
2019-02-12T08:52:59.390Z,76.50
2019-02-12T08:56:10.449Z,76.45
2019-02-12T08:59:12.577Z,75.95
2019-02-12T09:02:41.757Z,75.05
2019-02-12T09:05:48.807Z,73.54
2019-02-12T09:09:04.050Z,72.04
2019-02-12T09:12:03.340Z,72.02
2019-02-12T09:14:59.003Z,71.38
2019-02-12T09:18:22.175Z,69.59
2019-02-12T09:21:14.102Z,69.30
2019-02-12T09:24:24.527Z,70.04
2019-02-12T09:27:18.123Z,68.78
2019-02-12T09:30:32.031Z,69.88
2019-02-12T09:33:35.697Z,69.79
2019-02-12T09:36:36.031Z,68.76
2019-02-12T09:39:36.797Z,68.54
2019-02-12T09:42:44.504Z,66.19
2019-02-12T09:45:49.442Z,64.09
2019-02-12T09:48:38.327Z,65.36
2019-02-12T09:51:45.856Z,64.85
2019-02-12T09:54:59.649Z,63.62
2019-02-12T09:57:48.231Z,64.16
2019-02-12T10:00:57.012Z,63.31
2019-02-12T10:04:18.454Z,62.36
2019-02-12T10:07:30.293Z,63.10
2019-02-12T10:10:43.090Z,62.83
2019-02-12T10:13:46.420Z,62.92
2019-02-12T10:16:57.041Z,62.43
2019-02-12T10:19:46.235Z,62.38
2019-02-12T10:23:00.148Z,62.65
2019-02-12T10:25:42.904Z,62.67
2019-02-12T10:28:48.419Z,62.69
2019-02-12T10:31:40.395Z,62.44
2019-02-12T10:34:12.388Z,62.58
2019-02-12T10:36:44.357Z,62.06
2019-02-12T10:39:16.714Z,61.26
2019-02-12T10:41:48.690Z,60.81
2019-02-12T10:44:20.733Z,60.54
2019-02-12T10:46:52.729Z,59.63
2019-02-12T10:49:24.817Z,60.64
2019-02-12T10:51:56.836Z,60.47
2019-02-12T10:54:28.855Z,57.76
2019-02-12T10:57:00.830Z,57.34
2019-02-12T10:59:32.874Z,57.18
2019-02-12T11:02:04.885Z,57.17
2019-02-12T11:04:36.951Z,57.01
2019-02-12T11:07:08.988Z,56.62
2019-02-12T11:09:40.967Z,57.40
2019-02-12T11:12:12.988Z,57.68
2019-02-12T11:14:44.996Z,57.09
2019-02-12T11:17:17.004Z,56.68
2019-02-12T11:19:49.048Z,56.73
2019-02-12T11:22:21.018Z,57.25
2019-02-12T11:24:53.033Z,56.43
2019-02-12T11:27:26.066Z,57.32
2019-02-12T11:29:58.052Z,56.39
2019-02-12T11:32:30.095Z,54.68
2019-02-12T11:35:02.239Z,54.87
2019-02-12T11:37:34.274Z,55.04
2019-02-12T11:40:06.981Z,55.84
2019-02-12T11:42:39.027Z,55.53
2019-02-12T11:45:11.002Z,55.93
2019-02-12T11:47:43.009Z,56.07
2019-02-12T11:50:14.979Z,57.01
2019-02-12T11:52:47.031Z,55.96
2019-02-12T11:55:19.021Z,56.51
2019-02-12T11:57:51.066Z,56.48
2019-02-12T12:03:19.960Z,56.08
2019-02-12T12:05:51.975Z,56.80
2019-02-12T12:08:23.999Z,57.38
2019-02-12T12:10:56.008Z,56.99
2019-02-12T12:13:28.010Z,55.99
2019-02-12T12:16:00.004Z,54.88
2019-02-12T12:18:32.042Z,55.05
2019-02-12T12:21:04.059Z,56.50
2019-02-12T12:23:36.083Z,54.83
2019-02-12T12:26:08.131Z,55.63
2019-02-12T12:28:40.166Z,56.31
2019-02-12T12:31:12.154Z,56.91
2019-02-12T12:33:44.149Z,57.58
2019-02-12T12:36:16.153Z,57.31
2019-02-12T12:38:48.186Z,57.69
2019-02-12T12:41:20.183Z,57.23
2019-02-12T12:43:52.197Z,57.86
2019-02-12T12:46:24.188Z,57.83
2019-02-12T12:48:56.231Z,58.46
2019-02-12T12:51:28.207Z,58.28
2019-02-12T12:54:00.260Z,58.69
2019-02-12T12:56:32.245Z,58.98
2019-02-12T12:59:04.234Z,58.73
2019-02-12T13:01:36.233Z,58.77
2019-02-12T13:04:08.285Z,57.89
2019-02-12T13:06:40.286Z,58.20
2019-02-12T13:09:12.278Z,58.23
2019-02-12T13:11:44.284Z,58.25
2019-02-12T13:14:16.304Z,57.45
2019-02-12T13:16:48.404Z,57.65
2019-02-12T13:19:20.404Z,57.72
2019-02-12T13:21:52.450Z,57.20
2019-02-12T13:24:24.494Z,56.34
2019-02-12T13:26:56.538Z,57.08
2019-02-12T13:32:22.112Z,57.36
2019-02-12T13:34:54.145Z,56.42
2019-02-12T13:37:26.172Z,56.49
2019-02-12T13:39:58.204Z,56.79
2019-02-12T13:42:30.249Z,56.66
2019-02-12T13:45:02.263Z,56.34
2019-02-12T13:47:34.266Z,55.34
2019-02-12T13:50:06.935Z,56.15
2019-02-12T13:52:38.969Z,55.24
2019-02-12T13:55:16.910Z,54.94
2019-02-12T13:57:45.018Z,54.20
2019-02-12T14:00:17.002Z,53.72
2019-02-12T14:02:49.057Z,53.17
2019-02-12T14:05:21.109Z,53.18
2019-02-12T14:07:53.119Z,52.87
2019-02-12T14:10:25.090Z,53.69
2019-02-12T14:12:57.112Z,54.57
2019-02-12T14:15:29.160Z,53.49
2019-02-12T14:18:01.219Z,54.23
2019-02-12T14:20:33.231Z,54.57
2019-02-12T14:23:05.238Z,54.17
2019-02-12T14:25:37.267Z,52.30
2019-02-12T14:28:09.322Z,51.36
2019-02-12T14:30:41.297Z,52.22
2019-02-12T14:33:13.358Z,52.31
2019-02-12T14:35:45.456Z,52.59
2019-02-12T14:38:17.450Z,51.63
2019-02-12T14:40:49.491Z,52.72
2019-02-12T14:43:21.524Z,52.13
2019-02-12T14:45:53.544Z,51.64
2019-02-12T14:48:25.586Z,51.41
2019-02-12T14:50:57.590Z,51.96
2019-02-12T14:53:29.646Z,52.64
2019-02-12T14:56:01.704Z,51.76
2019-02-12T14:58:33.744Z,52.50
2019-02-12T15:01:05.795Z,52.28
2019-02-12T15:06:36.856Z,51.54
2019-02-12T15:09:08.906Z,52.10
2019-02-12T15:11:40.946Z,52.40
2019-02-12T15:14:12.979Z,52.86
2019-02-12T15:16:45.020Z,52.81
2019-02-12T15:19:17.045Z,53.06
2019-02-12T15:21:49.035Z,53.50
2019-02-12T15:24:21.102Z,53.33
2019-02-12T15:26:53.132Z,53.33
2019-02-12T15:29:25.260Z,52.72
2019-02-12T15:31:57.244Z,53.49
2019-02-12T15:34:29.294Z,53.71
2019-02-12T15:37:01.305Z,53.79
2019-02-12T15:39:33.425Z,53.38
2019-02-12T15:42:05.471Z,53.74
2019-02-12T15:44:37.505Z,54.54
2019-02-12T15:47:09.571Z,54.15
2019-02-12T15:49:41.713Z,54.32
2019-02-12T15:52:15.534Z,54.03
2019-02-12T15:54:47.711Z,54.76
2019-02-12T15:57:19.744Z,54.91
2019-02-12T15:59:52.274Z,54.55
2019-02-12T16:02:25.830Z,55.02
2019-02-12T16:04:57.835Z,55.22
2019-02-12T16:07:29.947Z,55.04
2019-02-12T16:10:01.960Z,55.44
2019-02-12T16:12:33.984Z,55.86
2019-02-12T16:15:08.520Z,56.17
2019-02-12T16:17:40.582Z,56.32
2019-02-12T16:20:12.718Z,55.90
2019-02-12T16:22:44.766Z,56.70
2019-02-12T16:25:16.773Z,56.91
2019-02-12T16:27:48.803Z,57.48
2019-02-12T16:30:20.841Z,57.34
2019-02-12T16:35:30.954Z,57.83
2019-02-12T16:38:03.118Z,58.01
2019-02-12T16:40:35.112Z,58.48
2019-02-12T16:43:07.203Z,58.40
2019-02-12T16:46:00.391Z,58.51
2019-02-12T16:48:32.522Z,58.80
2019-02-12T16:51:04.520Z,58.85
2019-02-12T16:53:36.549Z,59.04
2019-02-12T16:56:08.707Z,59.06
2019-02-12T16:58:40.680Z,59.06
2019-02-12T17:01:12.678Z,59.50
2019-02-12T17:03:44.850Z,59.86
2019-02-12T17:06:16.858Z,59.92
2019-02-12T17:08:48.899Z,60.01
2019-02-12T17:11:20.898Z,60.47
2019-02-12T17:13:53.747Z,60.75
2019-02-12T17:16:25.749Z,60.37
2019-02-12T17:18:57.832Z,60.21
2019-02-12T17:21:29.820Z,60.59
2019-02-12T17:24:01.909Z,60.59
2019-02-12T17:26:33.991Z,60.60
2019-02-12T17:29:05.995Z,60.80
2019-02-12T17:31:37.985Z,60.94
2019-02-12T17:34:10.040Z,60.94
2019-02-12T17:36:42.019Z,60.92
2019-02-12T17:39:14.059Z,60.90
2019-02-12T17:41:46.372Z,60.95
2019-02-12T17:44:18.400Z,61.35
2019-02-12T17:46:50.399Z,61.71
2019-02-12T17:49:26.578Z,61.89
2019-02-12T17:51:58.610Z,62.06
2019-02-12T17:54:31.029Z,61.83
2019-02-12T17:57:06.047Z,61.84
2019-02-12T17:59:38.479Z,62.38
2019-02-12T18:02:10.485Z,62.65
2019-02-12T18:04:42.637Z,63.18
2019-02-12T18:07:14.717Z,63.10
2019-02-12T18:09:46.981Z,63.26
2019-02-12T18:12:19.010Z,63.33
2019-02-12T18:14:51.117Z,63.31
2019-02-12T18:17:23.145Z,63.47
2019-02-12T18:19:55.479Z,63.38
2019-02-12T18:22:27.616Z,63.47
2019-02-12T18:24:59.656Z,62.92
2019-02-12T18:27:31.736Z,63.53
2019-02-12T18:30:05.433Z,63.74
2019-02-12T18:32:37.609Z,63.72
2019-02-12T18:35:09.638Z,63.29
2019-02-12T18:37:41.733Z,63.61
2019-02-12T18:40:13.792Z,63.83
2019-02-12T18:42:45.973Z,63.97
2019-02-12T18:45:18.132Z,64.45
2019-02-12T18:47:50.184Z,64.93
2019-02-12T18:50:22.256Z,65.34
2019-02-12T18:52:54.341Z,65.52
2019-02-12T18:55:26.352Z,65.81
2019-02-12T18:57:58.456Z,66.04
2019-02-12T19:00:30.533Z,66.17
2019-02-12T19:03:02.660Z,65.89
2019-02-12T19:05:34.812Z,65.68
2019-02-12T19:08:06.958Z,65.58
2019-02-12T19:10:38.998Z,65.79
2019-02-12T19:13:15.028Z,65.54
2019-02-12T19:15:47.036Z,66.42
2019-02-12T19:18:24.246Z,66.96
2019-02-12T19:20:56.279Z,67.07
2019-02-12T19:23:28.471Z,66.96
2019-02-12T19:26:00.507Z,66.92
2019-02-12T19:28:32.637Z,67.14
2019-02-12T19:31:04.688Z,67.10
2019-02-12T19:33:36.791Z,67.24
2019-02-12T19:36:08.903Z,67.24
2019-02-12T19:38:41.128Z,67.26
2019-02-12T19:41:13.294Z,67.73
2019-02-12T19:43:45.496Z,68.14
2019-02-12T19:46:17.592Z,68.30
2019-02-12T19:48:49.877Z,68.62
2019-02-12T19:51:21.955Z,68.61
2019-02-12T19:53:54.085Z,68.44
2019-02-12T19:56:26.162Z,68.38
2019-02-12T19:58:58.279Z,68.45
2019-02-12T20:01:30.371Z,68.57
2019-02-12T20:04:02.462Z,68.32
2019-02-12T20:06:34.539Z,68.33
2019-02-12T20:09:13.458Z,68.59
2019-02-12T20:11:45.541Z,68.71
2019-02-12T20:14:17.686Z,68.60
2019-02-12T20:16:49.862Z,68.78
2019-02-12T20:19:22.004Z,68.54
2019-02-12T20:21:54.100Z,68.43
2019-02-12T20:24:26.227Z,68.55
2019-02-12T20:27:06.229Z,68.78
2019-02-12T20:29:32.180Z,68.80
2019-02-12T20:32:04.292Z,68.77
2019-02-12T20:34:36.290Z,68.65
2019-02-12T20:37:08.459Z,68.87
2019-02-12T20:39:40.590Z,69.23
2019-02-12T20:42:12.643Z,69.32
2019-02-12T20:44:47.187Z,69.67
2019-02-12T20:47:19.087Z,69.61
2019-02-12T20:49:51.261Z,69.60
2019-02-12T20:52:23.309Z,69.64
2019-02-12T20:54:55.703Z,69.84
2019-02-12T20:57:27.731Z,69.09
2019-02-12T20:59:59.882Z,69.36
2019-02-12T21:02:31.970Z,70.03
2019-02-12T21:05:05.828Z,69.88
2019-02-12T21:07:38.197Z,69.90
2019-02-12T21:10:12.086Z,70.13
2019-02-12T21:12:44.283Z,70.05
2019-02-12T21:15:19.827Z,70.05
2019-02-12T21:17:51.953Z,70.05
2019-02-12T21:20:23.999Z,70.09
2019-02-12T21:22:56.101Z,70.09
2019-02-12T21:25:28.227Z,70.17
2019-02-12T21:28:00.532Z,70.67
2019-02-12T21:30:32.569Z,70.93
2019-02-12T21:33:04.613Z,71.07
2019-02-12T21:35:39.592Z,71.19
2019-02-12T21:38:14.606Z,71.33
2019-02-12T21:40:46.804Z,71.19
2019-02-12T21:43:20.592Z,71.37
2019-02-12T21:45:52.599Z,71.28
2019-02-12T21:48:25.310Z,71.29
2019-02-12T21:51:01.114Z,71.01
2019-02-12T21:53:35.061Z,71.47
2019-02-12T21:56:07.116Z,71.68
2019-02-12T21:58:39.154Z,71.78
2019-02-12T22:01:11.157Z,71.37
2019-02-12T22:03:43.198Z,71.03
2019-02-12T22:06:15.294Z,71.11
2019-02-12T22:08:47.306Z,70.65
2019-02-12T22:11:19.285Z,69.79
2019-02-12T22:13:51.351Z,69.91
2019-02-12T22:16:23.367Z,69.83
2019-02-12T22:18:55.414Z,70.15
2019-02-12T22:21:27.410Z,70.48
2019-02-12T22:23:59.466Z,70.54
2019-02-12T22:26:31.500Z,71.07
2019-02-12T22:29:03.557Z,71.39
2019-02-12T22:31:35.535Z,71.55
2019-02-12T22:34:08.353Z,71.73
2019-02-12T22:36:40.379Z,71.66
2019-02-12T22:39:12.703Z,71.80
2019-02-12T22:41:44.724Z,72.13
2019-02-12T22:44:16.744Z,72.17
2019-02-12T22:46:48.769Z,72.41
2019-02-12T22:49:21.011Z,72.35
2019-02-12T22:51:53.112Z,72.44
2019-02-12T22:54:25.103Z,72.51
2019-02-12T22:56:57.085Z,72.39
2019-02-12T22:59:29.076Z,72.06
2019-02-12T23:02:01.117Z,72.42
2019-02-12T23:04:33.566Z,72.55
2019-02-12T23:07:05.571Z,72.77
2019-02-12T23:09:37.555Z,73.01
2019-02-12T23:12:09.579Z,72.56
2019-02-12T23:14:41.614Z,73.05
2019-02-12T23:17:13.657Z,72.85
2019-02-12T23:19:46.038Z,72.78
2019-02-12T23:22:18.033Z,72.72
2019-02-12T23:24:50.063Z,73.04
2019-02-12T23:27:22.103Z,73.00
2019-02-12T23:29:54.118Z,72.99
2019-02-12T23:32:26.218Z,73.27
2019-02-12T23:34:58.199Z,73.43
2019-02-12T23:37:30.200Z,73.58
2019-02-12T23:40:02.205Z,73.93
2019-02-12T23:42:34.227Z,73.88
2019-02-12T23:45:06.337Z,73.94
2019-02-12T23:47:38.292Z,74.08
2019-02-12T23:50:10.283Z,74.37
2019-02-12T23:52:42.308Z,74.32
2019-02-12T23:55:14.303Z,74.72
2019-02-12T23:57:46.311Z,74.58
